Time;durP1;ratioP1;P1;durP2;ratioP2;P2;SDS_P1;SDS_P2;PMS_P1;PMS_P2;Temp;Humidity;BMP_temperature;BMP_pressure;BME280_temperature;BME280_humidity;BME280_pressure;Samples;Min_cycle;Max_cycle;Signal;HPM_P1;HPM_P2
2021/12/11 00:01:37;;;;;;;12.00;7.03;;;0.00;99.90;;;;;;5058634;28;20042;-89
2021/12/11 00:04:06;;;;;;;16.40;8.65;;;0.00;99.90;;;;;;5057211;28;20059;-90
2021/12/11 00:06:38;;;;;;;15.73;9.18;;;-0.10;99.90;;;;;;5057329;28;20075;-90
2021/12/11 00:09:25;;;;;;;13.10;7.88;;;0.00;99.90;;;;;;5075815;28;20048;-89
2021/12/11 00:11:57;;;;;;;13.13;7.75;;;0.00;99.90;;;;;;5094307;28;20047;-90
2021/12/11 00:14:23;;;;;;;14.85;8.50;;;0.00;99.90;;;;;;5081665;28;20095;-90
2021/12/11 00:16:49;;;;;;;16.90;8.73;;;-0.10;99.90;;;;;;5096838;28;20028;-90
2021/12/11 00:19:21;;;;;;;13.05;8.38;;;-0.10;99.90;;;;;;5095341;28;20035;-90
2021/12/11 00:21:49;;;;;;;15.15;8.18;;;0.00;99.90;;;;;;5081851;28;20044;-90
2021/12/11 00:24:18;;;;;;;15.77;8.85;;;0.00;99.90;;;;;;5074566;28;20517;-89
2021/12/11 00:26:51;;;;;;;17.05;8.75;;;-0.10;99.90;;;;;;5074647;28;20040;-90
2021/12/11 00:29:22;;;;;;;16.75;8.77;;;-0.10;99.90;;;;;;5074920;28;20040;-89
2021/12/11 00:31:51;;;;;;;15.77;8.77;;;-0.10;99.90;;;;;;5057351;28;20040;-89
2021/12/11 00:34:19;;;;;;;18.30;9.98;;;0.00;99.90;;;;;;5058049;28;20048;-89
2021/12/11 00:37:04;;;;;;;17.48;9.80;;;-0.10;99.90;;;;;;5073867;28;20040;-88
2021/12/11 00:39:31;;;;;;;14.68;7.88;;;0.00;99.90;;;;;;5074268;28;20076;-89
2021/12/11 00:42:00;;;;;;;14.50;8.05;;;-0.10;99.90;;;;;;5056237;28;20032;-90
2021/12/11 00:44:54;;;;;;;12.32;6.45;;;-0.10;99.90;;;;;;5057152;28;20032;-89
2021/12/11 00:47:24;;;;;;;10.85;5.50;;;-0.10;99.90;;;;;;5070729;28;20067;-89
2021/12/11 00:49:57;;;;;;;11.98;5.38;;;-0.20;99.90;;;;;;5073473;28;20051;-89
2021/12/11 00:52:28;;;;;;;11.77;6.63;;;-0.20;99.90;;;;;;5057361;28;20031;-89
2021/12/11 00:54:54;;;;;;;13.05;6.43;;;-0.30;99.90;;;;;;5057369;28;20048;-89
2021/12/11 00:57:21;;;;;;;15.00;8.88;;;-0.30;99.90;;;;;;5073948;28;20043;-90
2021/12/11 00:59:57;;;;;;;15.25;8.95;;;-0.30;99.90;;;;;;5075178;28;20036;-90
2021/12/11 01:02:23;;;;;;;16.67;9.40;;;-0.40;99.90;;;;;;5080802;28;20160;-91
2021/12/11 01:04:48;;;;;;;17.60;10.07;;;-0.40;99.90;;;;;;5087865;28;20036;-88
2021/12/11 01:07:20;;;;;;;17.88;10.65;;;-0.40;99.90;;;;;;5057147;28;20078;-89
2021/12/11 01:09:53;;;;;;;18.90;10.80;;;-0.40;99.90;;;;;;5074456;28;20079;-89
2021/12/11 01:12:25;;;;;;;19.13;10.30;;;-0.40;99.90;;;;;;5057089;28;20047;-89
2021/12/11 01:15:09;;;;;;;17.60;10.32;;;-0.40;99.90;;;;;;5056680;28;20040;-89
2021/12/11 01:17:59;;;;;;;20.73;11.15;;;-0.40;99.90;;;;;;5055713;28;20036;-89
2021/12/11 01:20:36;;;;;;;17.73;10.57;;;-0.40;99.90;;;;;;5056409;28;20040;-88
2021/12/11 01:23:14;;;;;;;19.73;10.27;;;-0.40;99.90;;;;;;5073687;28;20123;-89
2021/12/11 01:25:40;;;;;;;24.00;12.10;;;-0.40;99.90;;;;;;5055949;28;20426;-89
2021/12/11 01:28:08;;;;;;;19.10;10.90;;;-0.40;99.90;;;;;;5056543;28;20043;-89
2021/12/11 01:30:38;;;;;;;20.25;13.52;;;-0.40;99.90;;;;;;5073756;28;20043;-89
2021/12/11 01:33:07;;;;;;;19.73;11.43;;;-0.40;99.90;;;;;;5056020;28;20040;-89
2021/12/11 01:35:35;;;;;;;20.92;11.93;;;-0.40;99.90;;;;;;5072856;28;20040;-90
2021/12/11 01:38:16;;;;;;;19.77;11.30;;;-0.30;99.90;;;;;;5055604;28;20492;-89
2021/12/11 01:40:47;;;;;;;18.50;11.10;;;-0.30;99.90;;;;;;5072624;28;20393;-89
2021/12/11 01:43:13;;;;;;;17.77;10.13;;;-0.30;99.90;;;;;;5056254;28;20040;-89
2021/12/11 01:45:44;;;;;;;18.63;9.18;;;-0.30;99.90;;;;;;5072103;28;20063;-89
2021/12/11 01:48:10;;;;;;;18.63;10.45;;;-0.30;99.90;;;;;;5056149;28;20043;-89
2021/12/11 01:50:44;;;;;;;19.02;10.60;;;-0.30;99.90;;;;;;5073279;28;20044;-89
2021/12/11 01:53:34;;;;;;;19.73;11.60;;;-0.30;99.90;;;;;;5072987;28;20139;-89
2021/12/11 01:56:13;;;;;;;20.02;10.85;;;-0.40;99.90;;;;;;5056140;28;20193;-88
2021/12/11 01:58:44;;;;;;;16.00;9.63;;;-0.40;99.90;;;;;;5072574;28;20062;-89
2021/12/11 02:01:16;;;;;;;17.67;9.60;;;-0.40;99.90;;;;;;5072795;28;20038;-89
2021/12/11 02:03:43;;;;;;;16.60;9.90;;;-0.40;99.90;;;;;;5071239;28;20036;-89
2021/12/11 02:06:10;;;;;;;16.98;10.60;;;-0.40;99.90;;;;;;5072705;28;20047;-89
2021/12/11 02:08:38;;;;;;;18.67;11.18;;;-0.50;99.90;;;;;;5056003;28;20036;-89
2021/12/11 02:11:21;;;;;;;20.45;10.88;;;-0.50;99.90;;;;;;5072804;28;20054;-88
2021/12/11 02:13:55;;;;;;;19.17;10.73;;;-0.50;99.90;;;;;;5055244;28;20035;-89
2021/12/11 02:16:28;;;;;;;17.27;10.32;;;-0.60;99.90;;;;;;5055929;28;20044;-90
2021/12/11 02:19:02;;;;;;;;;;;-0.60;99.90;;;;;;5055496;28;20075;-89
2021/12/11 02:21:35;;;;;;;19.27;10.40;;;-0.60;99.90;;;;;;5072375;28;19920;-89
2021/12/11 02:24:04;;;;;;;16.67;9.80;;;-0.60;99.90;;;;;;5055285;28;20492;-89
2021/12/11 02:26:32;;;;;;;20.83;11.15;;;-0.60;99.90;;;;;;5055634;28;20059;-89
2021/12/11 02:29:30;;;;;;;20.20;11.02;;;-0.60;99.90;;;;;;5072012;28;20040;-89
2021/12/11 02:32:02;;;;;;;19.60;11.25;;;-0.60;99.90;;;;;;5071890;28;20056;-89
2021/12/11 02:34:37;;;;;;;18.55;11.10;;;-0.60;99.90;;;;;;5072321;28;20043;-89
2021/12/11 02:37:13;;;;;;;18.75;10.10;;;-0.60;99.90;;;;;;5068799;28;20150;-88
2021/12/11 02:40:11;;;;;;;17.10;10.52;;;-0.60;99.90;;;;;;5071797;28;20577;-88
2021/12/11 02:42:51;;;;;;;18.58;9.63;;;-0.60;99.90;;;;;;5045506;28;20102;-89
2021/12/11 02:45:39;;;;;;;19.20;11.35;;;-0.60;99.90;;;;;;5055684;28;20130;-89
2021/12/11 02:48:23;;;;;;;16.92;10.68;;;-0.60;99.90;;;;;;5055223;28;20501;-89
2021/12/11 02:51:04;;;;;;;15.57;9.30;;;-0.60;99.90;;;;;;5072768;28;20044;-89
2021/12/11 02:53:34;;;;;;;17.42;9.35;;;-0.60;99.90;;;;;;5054860;28;20051;-89
2021/12/11 02:56:12;;;;;;;15.73;9.95;;;-0.60;99.90;;;;;;5072457;28;20040;-89
2021/12/11 02:58:42;;;;;;;16.95;10.18;;;-0.60;99.90;;;;;;5055102;28;20083;-89
2021/12/11 03:01:21;;;;;;;20.60;9.60;;;-0.60;99.90;;;;;;5071829;28;20040;-90
2021/12/11 03:03:53;;;;;;;19.17;10.00;;;-0.60;99.90;;;;;;5052496;28;20050;-89
2021/12/11 03:06:23;;;;;;;16.73;8.93;;;-0.70;99.90;;;;;;5035109;28;20047;-88
2021/12/11 03:08:51;;;;;;;14.90;8.85;;;-0.70;99.90;;;;;;5050901;28;20568;-89
2021/12/11 03:11:22;;;;;;;15.48;9.35;;;-0.80;99.90;;;;;;5035803;28;20044;-89
2021/12/11 03:13:51;;;;;;;20.70;11.43;;;-0.80;99.90;;;;;;5051997;28;20051;-89
2021/12/11 03:16:20;;;;;;;19.83;11.20;;;-0.80;99.90;;;;;;5034895;28;20234;-89
2021/12/11 03:18:47;;;;;;;21.77;12.07;;;-0.80;99.90;;;;;;5035464;28;20068;-89
2021/12/11 03:21:14;;;;;;;21.48;11.80;;;-0.80;99.90;;;;;;5052437;28;20106;-89
2021/12/11 03:23:40;;;;;;;19.17;11.10;;;-0.90;99.90;;;;;;5034761;28;20067;-89
2021/12/11 03:26:06;;;;;;;21.00;12.50;;;-0.90;99.90;;;;;;5053659;28;20090;-89
2021/12/11 03:28:32;;;;;;;20.48;10.90;;;-0.90;99.90;;;;;;5038577;28;20028;-89
2021/12/11 03:31:00;;;;;;;19.33;11.38;;;-0.90;99.90;;;;;;5038554;28;20039;-89
2021/12/11 03:33:31;;;;;;;21.35;11.32;;;-0.90;99.90;;;;;;5051782;28;20554;-89
2021/12/11 03:35:57;;;;;;;22.30;12.82;;;-0.90;99.90;;;;;;5051628;28;20041;-89
2021/12/11 03:38:25;;;;;;;22.05;12.57;;;-0.90;99.90;;;;;;5053335;28;20029;-89
2021/12/11 03:40:52;;;;;;;21.85;12.02;;;-0.80;99.90;;;;;;5053788;28;20048;-89
2021/12/11 03:43:20;;;;;;;23.15;12.18;;;-0.80;99.90;;;;;;5063749;28;20029;-89
2021/12/11 03:45:49;;;;;;;23.33;13.05;;;-0.80;99.90;;;;;;5064775;28;20071;-89
2021/12/11 03:48:28;;;;;;;22.65;12.55;;;-0.80;99.90;;;;;;5034762;28;20401;-89
2021/12/11 03:50:54;;;;;;;21.10;11.95;;;-0.80;99.90;;;;;;5051482;28;20052;-89
2021/12/11 03:53:20;;;;;;;18.13;10.95;;;-0.80;99.90;;;;;;5035133;28;20233;-89
2021/12/11 03:55:54;;;;;;;22.33;12.63;;;-0.90;99.90;;;;;;5051612;28;20045;-89
2021/12/11 03:58:20;;;;;;;24.33;12.07;;;-0.90;99.90;;;;;;5051660;28;20037;-90
2021/12/11 04:00:49;;;;;;;19.48;12.13;;;-0.80;99.90;;;;;;5051983;28;20055;-89
2021/12/11 04:03:17;;;;;;;23.25;13.68;;;-0.80;99.90;;;;;;5052051;28;20127;-90
2021/12/11 04:05:45;;;;;;;22.23;11.90;;;-0.80;99.90;;;;;;5050404;28;20440;-89
2021/12/11 04:08:15;;;;;;;43.30;13.82;;;-0.70;99.90;;;;;;5051156;28;20048;-89
2021/12/11 04:10:41;;;;;;;25.45;14.55;;;-0.70;99.90;;;;;;5033946;28;20075;-90
2021/12/11 04:13:09;;;;;;;21.38;11.70;;;-0.70;99.90;;;;;;5051712;28;20049;-89
2021/12/11 04:15:37;;;;;;;22.48;13.15;;;-0.70;99.90;;;;;;5050996;28;20461;-90
2021/12/11 04:18:04;;;;;;;26.77;14.98;;;-0.70;99.90;;;;;;5051496;28;20094;-89
2021/12/11 04:20:31;;;;;;;22.45;13.38;;;-0.60;99.90;;;;;;5035032;28;20048;-90
2021/12/11 04:22:57;;;;;;;22.27;12.80;;;-0.60;99.90;;;;;;5034368;28;20043;-89
2021/12/11 04:25:27;;;;;;;24.33;14.30;;;-0.60;99.90;;;;;;5051615;28;20052;-89
2021/12/11 04:27:55;;;;;;;24.95;13.52;;;-0.50;99.90;;;;;;5050632;28;20076;-89
2021/12/11 04:30:22;;;;;;;24.92;14.10;;;-0.60;99.90;;;;;;5050453;28;20391;-89
2021/12/11 04:32:50;;;;;;;20.67;13.15;;;-0.60;99.90;;;;;;5050191;28;20041;-89
2021/12/11 04:35:18;;;;;;;23.10;13.27;;;-0.60;99.90;;;;;;5050465;28;20506;-89
2021/12/11 04:37:44;;;;;;;20.25;12.18;;;-0.60;99.90;;;;;;5049340;28;20033;-89
2021/12/11 04:40:21;;;;;;;23.30;12.25;;;-0.70;99.90;;;;;;5034284;28;20048;-89
2021/12/11 04:42:56;;;;;;;23.25;12.82;;;-0.60;99.90;;;;;;5049592;28;20040;-90
2021/12/11 04:45:35;;;;;;;24.92;13.73;;;-0.70;99.90;;;;;;5034640;28;20398;-89
2021/12/11 04:48:14;;;;;;;22.73;12.90;;;-0.70;99.90;;;;;;5050661;28;20049;-89
2021/12/11 04:51:28;;;;;;;23.25;12.55;;;-0.80;99.90;;;;;;5034268;28;20083;-89
2021/12/11 04:56:49;;;;;;;23.73;12.32;;;-0.80;99.90;;;;;;5050461;28;20049;-89
2021/12/11 05:04:42;;;;;;;25.38;13.68;;;-0.80;99.90;;;;;;5053038;28;20451;-88
2021/12/11 05:10:15;;;;;;;24.88;14.55;;;-0.80;99.90;;;;;;5028529;28;20045;-89
2021/12/11 05:12:43;;;;;;;25.10;14.15;;;-0.70;99.90;;;;;;5042336;28;20041;-90
2021/12/11 05:15:14;;;;;;;33.60;15.70;;;-0.70;99.90;;;;;;5056610;28;20094;-89
2021/12/11 05:17:40;;;;;;;27.27;14.52;;;-0.70;99.90;;;;;;5054170;28;20067;-89
2021/12/11 05:20:09;;;;;;;30.20;16.70;;;-0.60;99.90;;;;;;5053777;28;20412;-89
2021/12/11 05:22:35;;;;;;;24.75;15.00;;;-0.60;99.90;;;;;;5037006;28;20173;-90
2021/12/11 05:25:03;;;;;;;27.40;14.77;;;-0.60;99.90;;;;;;5053208;28;20044;-89
2021/12/11 05:27:28;;;;;;;32.53;15.80;;;-0.50;99.90;;;;;;5036584;28;20040;-89
2021/12/11 05:29:54;;;;;;;34.33;18.85;;;-0.50;99.90;;;;;;5036835;28;20040;-90
2021/12/11 05:32:23;;;;;;;26.85;16.77;;;-0.50;99.90;;;;;;5064018;28;20036;-90
2021/12/11 05:34:50;;;;;;;25.90;15.48;;;-0.50;99.90;;;;;;5056420;28;20399;-90
2021/12/11 05:37:16;;;;;;;27.83;16.50;;;-0.50;99.90;;;;;;5073087;28;20101;-90
2021/12/11 05:39:42;;;;;;;27.50;15.73;;;-0.50;99.90;;;;;;5073355;28;20074;-89
2021/12/11 05:42:08;;;;;;;27.85;15.25;;;-0.50;99.90;;;;;;5073582;28;20079;-90
2021/12/11 05:44:35;;;;;;;25.83;14.80;;;-0.50;99.90;;;;;;5073541;28;20508;-89
2021/12/11 05:47:02;;;;;;;24.95;14.75;;;-0.50;99.90;;;;;;5056846;28;20040;-90
2021/12/11 05:49:29;;;;;;;29.40;16.35;;;-0.50;99.90;;;;;;5073194;28;20040;-90
2021/12/11 05:51:56;;;;;;;29.25;18.05;;;-0.50;99.90;;;;;;5056377;28;20118;-89
2021/12/11 05:54:25;;;;;;;32.75;17.55;;;-0.40;99.90;;;;;;5072370;28;20079;-89
2021/12/11 05:56:55;;;;;;;29.70;16.20;;;-0.40;99.90;;;;;;5056002;28;20044;-90
2021/12/11 05:59:21;;;;;;;32.40;18.25;;;-0.40;99.90;;;;;;5072959;28;20036;-90
2021/12/11 06:01:52;;;;;;;26.63;16.42;;;-0.40;99.90;;;;;;5073326;28;20028;-90
2021/12/11 06:04:24;;;;;;;27.17;14.57;;;-0.40;99.90;;;;;;5071977;28;20081;-89
2021/12/11 06:06:50;;;;;;;25.80;15.38;;;-0.40;99.90;;;;;;5073222;28;20056;-89
2021/12/11 06:09:17;;;;;;;22.05;13.85;;;-0.50;99.90;;;;;;5056209;28;20092;-89
2021/12/11 06:11:46;;;;;;;26.30;14.93;;;-0.50;99.90;;;;;;5073453;28;20047;-89
2021/12/11 06:14:12;;;;;;;24.58;14.07;;;-0.50;99.90;;;;;;5072552;28;20033;-89
2021/12/11 06:16:38;;;;;;;26.60;14.45;;;-0.60;99.90;;;;;;5072499;28;20059;-89
2021/12/11 06:19:05;;;;;;;25.20;14.93;;;-0.60;99.90;;;;;;5056434;28;20504;-89
2021/12/11 06:21:33;;;;;;;28.95;16.08;;;-0.60;99.90;;;;;;5074288;28;20114;-89
2021/12/11 06:23:59;;;;;;;29.83;16.85;;;-0.60;99.90;;;;;;5074324;28;20032;-89
2021/12/11 06:26:25;;;;;;;24.60;14.45;;;-0.60;99.90;;;;;;5075085;28;20103;-89
2021/12/11 06:28:51;;;;;;;26.83;15.68;;;-0.60;99.90;;;;;;5080552;28;20043;-89
2021/12/11 06:31:19;;;;;;;27.98;16.35;;;-0.60;99.90;;;;;;5072881;28;20055;-89
2021/12/11 06:33:47;;;;;;;29.33;16.02;;;-0.60;99.90;;;;;;5033758;28;20040;-89
2021/12/11 06:36:14;;;;;;;26.50;15.90;;;-0.60;99.90;;;;;;5065817;28;20041;-89
2021/12/11 06:38:43;;;;;;;25.02;15.13;;;-0.60;99.90;;;;;;5036067;28;20173;-89
2021/12/11 06:41:11;;;;;;;27.73;14.90;;;-0.60;99.90;;;;;;5052782;28;20036;-89
2021/12/11 06:43:37;;;;;;;24.25;16.13;;;-0.70;99.90;;;;;;5052549;28;20048;-89
2021/12/11 06:46:03;;;;;;;30.50;16.95;;;-0.70;99.90;;;;;;5036357;28;20044;-89
2021/12/11 06:48:29;;;;;;;28.88;16.52;;;-0.70;99.90;;;;;;5035826;28;20033;-89
2021/12/11 06:50:56;;;;;;;24.98;13.68;;;-0.70;99.90;;;;;;5035718;28;20382;-89
2021/12/11 06:53:32;;;;;;;25.02;15.35;;;-0.70;99.90;;;;;;5035303;28;20048;-89
2021/12/11 06:55:58;;;;;;;22.15;13.25;;;-0.70;99.90;;;;;;5035649;28;20032;-90
2021/12/11 06:58:25;;;;;;;28.40;14.98;;;-0.70;99.90;;;;;;5052048;28;20032;-89
2021/12/11 07:00:51;;;;;;;24.42;15.18;;;-0.70;99.90;;;;;;5054210;28;20048;-89
2021/12/11 07:03:17;;;;;;;23.92;12.93;;;-0.80;99.90;;;;;;5056580;28;20044;-89
2021/12/11 07:05:43;;;;;;;27.55;14.73;;;-0.80;99.90;;;;;;5038676;28;20040;-89
2021/12/11 07:08:12;;;;;;;25.55;13.80;;;-0.80;99.90;;;;;;5056712;28;20041;-89
2021/12/11 07:10:39;;;;;;;21.17;12.55;;;-0.80;99.90;;;;;;5039097;28;20041;-89
2021/12/11 07:13:05;;;;;;;24.05;12.73;;;-0.80;99.90;;;;;;5055792;28;20047;-90
2021/12/11 07:15:30;;;;;;;24.38;13.45;;;-0.90;99.90;;;;;;5038286;28;20048;-90
2021/12/11 07:17:56;;;;;;;21.30;13.38;;;-0.90;99.90;;;;;;5039162;28;20052;-89
2021/12/11 07:20:22;;;;;;;22.13;13.10;;;-0.90;99.90;;;;;;5054972;28;20116;-90
2021/12/11 07:22:48;;;;;;;24.75;13.80;;;-1.00;99.90;;;;;;5039294;28;20029;-90
2021/12/11 07:25:51;;;;;;;21.50;12.57;;;-1.00;99.90;;;;;;5038656;28;20498;-89
2021/12/11 07:28:18;;;;;;;27.77;13.40;;;-1.10;99.90;;;;;;5055573;28;20413;-89
2021/12/11 07:30:46;;;;;;;22.92;12.82;;;-1.10;99.90;;;;;;5055741;28;20048;-90
2021/12/11 07:33:13;;;;;;;23.17;12.40;;;-1.10;99.90;;;;;;5035788;28;20398;-89
2021/12/11 07:35:40;;;;;;;25.42;14.43;;;-1.10;99.90;;;;;;5051526;28;20045;-90
2021/12/11 07:38:07;;;;;;;23.13;13.93;;;-1.20;99.90;;;;;;5035444;28;20041;-89
2021/12/11 07:40:36;;;;;;;23.77;14.40;;;-1.20;99.90;;;;;;5035739;28;20045;-90
2021/12/11 07:43:03;;;;;;;29.92;15.45;;;-1.20;99.90;;;;;;5051793;28;20120;-90
2021/12/11 07:45:31;;;;;;;27.17;16.17;;;-1.20;99.90;;;;;;5050890;28;20537;-90
2021/12/11 07:47:57;;;;;;;26.42;15.10;;;-1.20;99.90;;;;;;5051715;28;20103;-90
2021/12/11 07:50:25;;;;;;;31.65;15.48;;;-1.10;99.90;;;;;;5035231;28;20137;-89
2021/12/11 07:52:51;;;;;;;23.65;15.43;;;-1.10;99.90;;;;;;5034903;28;20045;-89
2021/12/11 07:55:17;;;;;;;27.30;14.80;;;-1.10;99.90;;;;;;5051402;28;20036;-89
2021/12/11 07:57:43;;;;;;;26.63;15.75;;;-1.10;99.90;;;;;;5053026;28;20033;-89
2021/12/11 08:00:12;;;;;;;24.00;13.20;;;-1.10;99.90;;;;;;5051879;28;20115;-90
2021/12/11 08:02:38;;;;;;;22.85;14.05;;;-1.10;99.90;;;;;;5051670;28;20559;-89
2021/12/11 08:05:04;;;;;;;26.05;12.85;;;-1.10;99.90;;;;;;5050768;28;20045;-89
2021/12/11 08:07:30;;;;;;;29.30;15.05;;;-1.10;99.90;;;;;;5035059;28;20045;-89
2021/12/11 08:09:56;;;;;;;26.67;15.32;;;-1.00;99.90;;;;;;5034684;28;20048;-88
2021/12/11 08:12:22;;;;;;;28.33;15.18;;;-1.00;99.90;;;;;;5034230;28;20044;-89
2021/12/11 08:14:49;;;;;;;27.90;16.10;;;-1.00;99.90;;;;;;5051157;28;20045;-89
2021/12/11 08:17:16;;;;;;;31.80;17.58;;;-1.00;99.90;;;;;;5051399;28;20049;-89
2021/12/11 08:19:42;;;;;;;30.58;16.48;;;-0.90;99.90;;;;;;5050474;28;20055;-89
2021/12/11 08:22:08;;;;;;;34.47;17.20;;;-0.90;99.90;;;;;;5051307;28;20029;-89
2021/12/11 08:24:37;;;;;;;34.22;16.50;;;-0.90;99.90;;;;;;5050966;28;20566;-89
2021/12/11 08:27:09;;;;;;;25.80;14.50;;;-0.80;99.90;;;;;;5041931;28;20041;-89
2021/12/11 08:29:35;;;;;;;23.33;14.55;;;-0.90;99.90;;;;;;5045926;28;20041;-90
2021/12/11 08:32:01;;;;;;;28.02;16.13;;;-0.90;99.90;;;;;;5025916;28;20071;-89
2021/12/11 08:34:28;;;;;;;28.00;13.93;;;-0.90;99.90;;;;;;5037439;28;20044;-90
2021/12/11 08:36:55;;;;;;;36.03;15.68;;;-0.90;99.90;;;;;;5052416;28;20044;-89
2021/12/11 08:39:21;;;;;;;31.25;14.50;;;-0.90;99.90;;;;;;5053613;28;20036;-88
2021/12/11 08:41:51;;;;;;;68.20;15.45;;;-1.00;99.90;;;;;;5037431;28;20036;-89
2021/12/11 08:44:17;;;;;;;29.45;15.30;;;-1.00;99.90;;;;;;5037401;28;20387;-89
2021/12/11 08:46:51;;;;;;;41.58;14.07;;;-1.00;99.90;;;;;;5037099;28;20121;-89
2021/12/11 08:49:27;;;;;;;21.42;12.95;;;-1.00;99.90;;;;;;5054059;28;20512;-89
2021/12/11 08:51:58;;;;;;;23.42;14.55;;;-1.00;99.90;;;;;;5054058;28;20040;-90
2021/12/11 08:54:27;;;;;;;22.67;14.27;;;-0.90;99.90;;;;;;5055641;28;20067;-90
2021/12/11 08:56:59;;;;;;;24.52;13.30;;;-0.90;99.90;;;;;;5040652;28;20040;-90
2021/12/11 08:59:29;;;;;;;22.83;13.93;;;-0.80;99.90;;;;;;5068834;28;20037;-91
2021/12/11 09:02:05;;;;;;;25.23;15.52;;;-0.80;99.90;;;;;;5037886;28;20037;-90
2021/12/11 09:04:37;;;;;;;24.75;15.32;;;-0.70;99.90;;;;;;5060035;28;20040;-90
2021/12/11 09:07:15;;;;;;;24.33;14.63;;;-0.70;99.90;;;;;;5056727;28;20101;-89
2021/12/11 09:10:00;;;;;;;26.63;15.82;;;-0.70;99.90;;;;;;5050855;28;20043;-89
2021/12/11 09:12:32;;;;;;;23.33;14.82;;;-0.60;99.90;;;;;;5039993;28;20051;-90
2021/12/11 09:15:13;;;;;;;27.08;14.13;;;-0.70;99.90;;;;;;5035342;28;20094;-89
2021/12/11 09:17:49;;;;;;;25.73;14.88;;;-0.60;99.90;;;;;;5048479;28;20040;-89
2021/12/11 09:20:40;;;;;;;25.92;15.27;;;-0.60;99.90;;;;;;5042744;28;20628;-90
2021/12/11 09:23:28;;;;;;;27.45;16.48;;;-0.50;99.90;;;;;;5052139;28;20604;-89
2021/12/11 09:26:08;;;;;;;29.75;17.80;;;-0.40;99.90;;;;;;5037550;28;20040;-89
2021/12/11 09:28:48;;;;;;;34.88;19.75;;;-0.30;99.90;;;;;;5053282;28;20067;-89
2021/12/11 09:31:23;;;;;;;31.25;19.63;;;-0.20;99.90;;;;;;5052552;28;20036;-89
2021/12/11 09:34:02;;;;;;;29.75;18.80;;;-0.10;99.90;;;;;;5053134;28;20048;-89
2021/12/11 09:36:36;;;;;;;33.60;19.63;;;0.00;99.90;;;;;;5050822;28;20045;-89
2021/12/11 09:39:10;;;;;;;30.55;18.90;;;0.00;99.90;;;;;;5052719;28;20489;-88
2021/12/11 09:41:36;;;;;;;32.67;18.98;;;0.10;99.90;;;;;;5052858;28;20048;-89
2021/12/11 09:44:19;;;;;;;33.25;20.63;;;0.20;99.90;;;;;;5043354;28;20033;-89
2021/12/11 09:46:52;;;;;;;32.22;18.48;;;0.20;99.90;;;;;;5069977;28;20090;-88
2021/12/11 09:49:22;;;;;;;36.05;19.33;;;0.30;99.90;;;;;;5051747;28;20045;-89
2021/12/11 09:51:58;;;;;;;30.38;19.13;;;0.40;99.90;;;;;;5036494;28;20036;-88
2021/12/11 09:54:24;;;;;;;34.05;20.42;;;0.40;99.90;;;;;;5036294;28;20040;-89
2021/12/11 09:56:54;;;;;;;34.97;21.33;;;0.50;99.90;;;;;;5052599;28;20044;-89
2021/12/11 09:59:22;;;;;;;33.60;21.05;;;0.60;99.90;;;;;;5052194;28;20700;-89
2021/12/11 10:01:52;;;;;;;31.45;20.48;;;0.70;99.90;;;;;;5051880;28;20076;-89
2021/12/11 10:04:32;;;;;;;31.55;20.98;;;0.70;99.90;;;;;;5070109;28;20445;-89
2021/12/11 10:07:30;;;;;;;34.80;20.40;;;0.80;99.90;;;;;;5063938;28;20040;-89
2021/12/11 10:10:04;;;;;;;32.30;21.10;;;0.90;99.90;;;;;;5057613;28;20055;-89
2021/12/11 10:12:35;;;;;;;34.25;21.73;;;1.00;99.90;;;;;;5031972;28;20041;-89
2021/12/11 10:15:04;;;;;;;33.53;20.92;;;1.10;99.90;;;;;;5016370;28;20033;-89
2021/12/11 10:17:39;;;;;;;32.78;22.42;;;1.20;99.90;;;;;;5016119;28;20541;-89
2021/12/11 10:20:16;;;;;;;34.47;21.95;;;1.30;99.90;;;;;;5051481;28;20112;-89
2021/12/11 10:22:43;;;;;;;37.60;22.88;;;1.40;99.90;;;;;;5024729;28;20401;-89
2021/12/11 10:25:17;;;;;;;37.10;23.33;;;1.50;99.90;;;;;;5043086;28;20083;-89
2021/12/11 10:27:43;;;;;;;36.80;23.45;;;1.60;99.90;;;;;;5021539;28;20035;-89
2021/12/11 10:30:15;;;;;;;39.53;26.05;;;1.80;99.90;;;;;;5021820;28;20045;-89
2021/12/11 10:32:41;;;;;;;37.35;24.13;;;1.90;99.90;;;;;;5016737;28;20060;-90
2021/12/11 10:35:13;;;;;;;34.78;24.45;;;2.00;99.90;;;;;;5018149;28;20097;-90
2021/12/11 10:37:40;;;;;;;34.00;21.27;;;2.10;99.90;;;;;;5053420;28;20545;-89
2021/12/11 10:40:17;;;;;;;34.75;22.65;;;2.30;99.90;;;;;;5056355;28;20040;-90
2021/12/11 10:42:45;;;;;;;32.90;22.20;;;2.40;99.90;;;;;;5056173;28;20075;-89
2021/12/11 10:45:16;;;;;;;36.08;23.33;;;2.50;99.90;;;;;;5039876;28;20067;-89
2021/12/11 10:47:48;;;;;;;34.60;23.77;;;2.60;99.90;;;;;;5056950;28;20401;-89
2021/12/11 10:50:30;;;;;;;31.65;21.63;;;2.80;99.90;;;;;;5056125;28;20040;-89
2021/12/11 10:52:56;;;;;;;31.37;20.73;;;2.90;99.90;;;;;;5056770;28;20062;-90
2021/12/11 10:55:26;;;;;;;33.90;21.85;;;3.10;99.90;;;;;;5053993;28;20299;-89
2021/12/11 10:57:53;;;;;;;34.75;22.95;;;3.20;99.90;;;;;;5055515;28;20154;-90
2021/12/11 11:00:36;;;;;;;32.38;23.60;;;3.30;99.90;;;;;;5055832;28;20452;-90
2021/12/11 11:03:03;;;;;;;36.30;21.57;;;3.50;99.90;;;;;;5038014;28;20041;-89
2021/12/11 11:05:29;;;;;;;31.90;22.60;;;3.70;99.90;;;;;;5054324;28;20309;-90
2021/12/11 11:07:56;;;;;;;37.03;22.92;;;3.80;99.90;;;;;;5075711;28;20496;-90
2021/12/11 11:10:29;;;;;;;30.05;21.00;;;3.90;99.90;;;;;;5046751;28;20068;-89
2021/12/11 11:12:57;;;;;;;29.73;19.73;;;4.00;99.90;;;;;;5043337;28;20051;-90
2021/12/11 11:15:25;;;;;;;32.58;19.38;;;4.20;99.90;;;;;;5044150;28;20759;-90
2021/12/11 11:17:52;;;;;;;26.77;18.73;;;4.20;99.90;;;;;;5039611;28;20049;-90
2021/12/11 11:20:25;;;;;;;28.38;19.85;;;4.30;99.90;;;;;;5035449;28;20081;-89
2021/12/11 11:22:51;;;;;;;33.05;19.02;;;4.40;99.90;;;;;;5035763;28;20451;-89
2021/12/11 11:25:19;;;;;;;33.65;21.65;;;4.40;99.90;;;;;;5036889;28;20087;-89
2021/12/11 11:27:47;;;;;;;27.70;19.95;;;4.50;99.90;;;;;;5037987;28;20049;-91
2021/12/11 11:30:20;;;;;;;33.60;20.05;;;4.60;99.90;;;;;;5053736;28;20045;-91
2021/12/11 11:32:46;;;;;;;30.33;20.10;;;4.70;99.90;;;;;;5066471;28;20114;-90
2021/12/11 11:35:21;;;;;;;28.65;20.50;;;4.90;99.90;;;;;;5034849;28;20052;-90
2021/12/11 11:37:51;;;;;;;31.67;20.75;;;5.00;99.90;;;;;;5052251;28;20478;-90
2021/12/11 11:40:23;;;;;;;31.38;21.27;;;5.10;99.90;;;;;;5055197;28;20055;-91
2021/12/11 11:42:49;;;;;;;33.53;20.53;;;5.20;99.90;;;;;;5072059;28;20040;-90
2021/12/11 11:45:15;;;;;;;28.27;20.73;;;5.40;99.90;;;;;;5055319;28;20036;-91
2021/12/11 11:47:41;;;;;;;30.73;19.67;;;5.60;99.90;;;;;;5055053;28;20040;-90
2021/12/11 11:50:13;;;;;;;29.35;19.88;;;5.90;99.90;;;;;;5048359;28;20037;-90
2021/12/11 11:52:41;;;;;;;29.27;20.00;;;6.20;99.90;;;;;;5051948;28;20041;-90
2021/12/11 11:55:12;;;;;;;29.25;19.88;;;6.50;99.90;;;;;;5037331;28;20032;-89
2021/12/11 11:57:42;;;;;;;27.65;19.05;;;6.80;99.90;;;;;;5037869;28;20040;-90
2021/12/11 12:00:14;;;;;;;27.65;18.90;;;7.50;99.90;;;;;;5038173;28;20046;-90
2021/12/11 12:02:40;;;;;;;30.17;19.80;;;8.50;99.90;;;;;;5038218;28;20648;-90
2021/12/11 12:05:07;;;;;;;28.75;18.88;;;9.10;99.90;;;;;;5049433;28;20033;-90
2021/12/11 12:07:33;;;;;;;26.52;18.38;;;9.70;99.90;;;;;;5051289;28;20445;-90
2021/12/11 12:10:18;;;;;;;28.10;19.33;;;10.10;99.90;;;;;;5034850;28;20052;-90
2021/12/11 12:12:44;;;;;;;28.13;20.45;;;10.80;99.60;;;;;;5051114;28;20045;-90
2021/12/11 12:15:14;;;;;;;27.70;20.15;;;11.70;98.50;;;;;;5031488;28;20539;-90
2021/12/11 12:17:40;;;;;;;25.98;21.23;;;12.50;97.50;;;;;;5040454;28;20037;-91
2021/12/11 12:22:46;;;;;;;25.50;21.02;;;14.10;90.30;;;;;;5048681;28;20144;-91
2021/12/11 12:25:12;;;;;;;25.05;19.30;;;14.70;84.60;;;;;;5049167;28;20045;-90
2021/12/11 12:27:39;;;;;;;24.05;18.98;;;15.30;77.80;;;;;;5050033;28;20052;-92
2021/12/11 12:30:24;;;;;;;24.75;18.55;;;15.90;73.70;;;;;;5017866;28;20085;-92
2021/12/11 12:32:54;;;;;;;25.02;19.08;;;16.30;70.10;;;;;;5049875;28;20056;-91
2021/12/11 12:35:22;;;;;;;22.23;19.00;;;16.50;67.90;;;;;;5051349;28;20142;-92
2021/12/11 12:37:49;;;;;;;22.50;18.83;;;16.60;66.60;;;;;;5050712;28;20037;-92
2021/12/11 12:40:27;;;;;;;22.88;18.25;;;16.70;67.00;;;;;;5017619;28;20037;-92
2021/12/11 12:43:10;;;;;;;21.40;19.08;;;17.00;65.70;;;;;;5034889;28;20041;-92
2021/12/11 12:45:43;;;;;;;21.77;17.85;;;17.00;63.00;;;;;;5049755;28;20489;-92
2021/12/11 12:48:15;;;;;;;21.60;18.23;;;16.70;61.90;;;;;;5048253;28;20470;-91
2021/12/11 12:50:58;;;;;;;24.02;18.80;;;16.10;63.30;;;;;;5050327;28;20070;-92
2021/12/11 12:53:25;;;;;;;21.08;18.17;;;15.90;64.30;;;;;;5050682;28;20703;-92
2021/12/11 12:56:06;;;;;;;21.27;18.20;;;16.20;64.40;;;;;;5050224;28;20494;-92
2021/12/11 12:58:39;;;;;;;23.10;18.15;;;16.70;62.50;;;;;;5049749;28;20069;-92
2021/12/11 13:01:12;;;;;;;23.27;18.88;;;17.10;61.20;;;;;;5050299;28;20452;-93
2021/12/11 13:03:40;;;;;;;22.98;17.60;;;17.50;59.60;;;;;;5049200;28;20539;-92